Time;durP1;ratioP1;P1;durP2;ratioP2;P2;SDS_P1;SDS_P2;PMS_P1;PMS_P2;Temp;Humidity;BMP_temperature;BMP_pressure;BME280_temperature;BME280_humidity;BME280_pressure;Samples;Min_cycle;Max_cycle;Signal;HPM_P1;HPM_P2
2023/05/02 00:02:05;;;;;;;2.72;2.03;;;26.70;99.90;;;;;;5006405;23;20420;-58
2023/05/02 00:04:31;;;;;;;4.60;2.63;;;26.70;99.90;;;;;;4993225;28;20018;-58
2023/05/02 00:06:57;;;;;;;3.40;2.50;;;26.70;99.90;;;;;;4993607;28;20034;-58
2023/05/02 00:09:22;;;;;;;2.28;2.03;;;26.70;99.90;;;;;;4991533;28;20099;-57
2023/05/02 00:11:48;;;;;;;3.38;2.25;;;26.70;99.90;;;;;;4992994;28;20036;-58
2023/05/02 00:14:14;;;;;;;6.00;2.85;;;26.70;99.90;;;;;;4992928;28;20022;-57
2023/05/02 00:16:40;;;;;;;3.22;2.40;;;26.70;99.90;;;;;;4992955;28;20053;-58
2023/05/02 00:19:06;;;;;;;4.68;2.63;;;26.70;99.90;;;;;;4993102;28;20034;-58
2023/05/02 00:21:32;;;;;;;4.35;2.47;;;26.70;99.90;;;;;;4993240;28;20102;-58
2023/05/02 00:23:58;;;;;;;3.88;2.45;;;26.70;99.90;;;;;;4991508;28;20038;-57
2023/05/02 00:26:23;;;;;;;3.85;2.28;;;26.70;99.90;;;;;;4991420;28;20397;-56
2023/05/02 00:28:49;;;;;;;3.92;2.20;;;26.70;99.90;;;;;;4992634;28;20405;-57
2023/05/02 00:31:15;;;;;;;4.13;2.47;;;26.70;99.90;;;;;;4992509;28;20034;-56
2023/05/02 00:33:41;;;;;;;3.92;2.40;;;26.70;99.90;;;;;;4992657;28;20032;-56
2023/05/02 00:36:17;;;;;;;3.95;2.92;;;26.70;99.90;;;;;;4992477;28;20535;-56
2023/05/02 00:38:44;;;;;;;4.13;2.38;;;26.70;99.90;;;;;;4992758;28;20030;-56
2023/05/02 00:41:10;;;;;;;3.90;2.50;;;26.70;99.90;;;;;;4992533;28;20023;-56
2023/05/02 00:43:38;;;;;;;4.10;2.50;;;26.60;99.90;;;;;;5003147;28;20080;-56
2023/05/02 00:46:04;;;;;;;4.03;2.38;;;26.70;99.90;;;;;;4994975;28;20025;-56
2023/05/02 00:48:29;;;;;;;3.00;2.45;;;26.70;99.90;;;;;;4991546;28;20093;-56
2023/05/02 00:50:56;;;;;;;3.38;2.38;;;26.70;99.90;;;;;;4992317;28;20034;-55
2023/05/02 00:53:22;;;;;;;3.50;2.50;;;26.60;99.90;;;;;;4992564;28;20025;-56
2023/05/02 00:55:48;;;;;;;2.90;2.20;;;26.70;99.90;;;;;;4992552;28;20046;-57
2023/05/02 00:58:17;;;;;;;2.78;2.20;;;26.60;99.90;;;;;;4978395;28;20543;-56
2023/05/02 01:01:13;;;;;;;4.25;2.38;;;26.60;99.90;;;;;;5008896;23;20054;-46
2023/05/02 01:03:57;;;;;;;4.60;2.05;;;26.60;99.90;;;;;;4991239;28;20114;-46
2023/05/02 01:06:41;;;;;;;5.63;2.55;;;26.60;99.90;;;;;;4992256;28;20027;-46
2023/05/02 01:09:48;;;;;;;3.78;2.30;;;26.60;99.90;;;;;;4990973;28;20447;-46
2023/05/02 01:12:40;;;;;;;4.72;3.03;;;26.60;99.90;;;;;;4951658;29;20120;-46
2023/05/02 01:15:10;;;;;;;3.40;2.55;;;26.70;99.90;;;;;;4991116;28;20089;-47
2023/05/02 01:17:37;;;;;;;5.40;2.75;;;26.60;99.90;;;;;;4992321;28;20030;-47
2023/05/02 01:20:08;;;;;;;4.30;2.80;;;26.60;99.90;;;;;;4992545;28;20026;-46
2023/05/02 01:22:39;;;;;;;3.33;2.58;;;26.60;99.90;;;;;;4992129;28;20019;-47
2023/05/02 01:25:18;;;;;;;3.30;2.40;;;26.60;99.90;;;;;;4991026;28;20026;-47
2023/05/02 01:28:08;;;;;;;2.88;2.20;;;26.60;99.90;;;;;;4992370;28;20019;-47
2023/05/02 01:30:39;;;;;;;4.97;2.50;;;26.60;99.90;;;;;;4992198;28;20027;-47
2023/05/02 01:33:07;;;;;;;5.57;2.63;;;26.60;99.90;;;;;;4992255;28;20180;-47
2023/05/02 01:35:35;;;;;;;5.00;2.20;;;26.60;99.90;;;;;;4992038;28;20101;-47
2023/05/02 01:38:02;;;;;;;4.47;2.90;;;26.60;99.90;;;;;;4992180;28;20023;-47
2023/05/02 01:40:29;;;;;;;3.60;2.13;;;26.60;99.90;;;;;;4993749;28;20034;-47
2023/05/02 01:42:57;;;;;;;4.35;2.80;;;26.60;99.90;;;;;;4995946;28;20050;-47
2023/05/02 01:45:24;;;;;;;5.57;2.15;;;26.60;99.90;;;;;;4995673;28;20018;-47
2023/05/02 01:47:51;;;;;;;5.63;2.50;;;26.60;99.90;;;;;;4995855;28;20493;-47
2023/05/02 01:50:21;;;;;;;2.58;2.38;;;26.60;99.90;;;;;;4995482;28;20101;-47
2023/05/02 01:52:52;;;;;;;2.83;2.20;;;26.60;99.90;;;;;;4995527;28;20034;-47
2023/05/02 01:55:18;;;;;;;4.32;2.15;;;26.60;99.90;;;;;;4995490;28;20034;-47
2023/05/02 01:57:46;;;;;;;3.83;2.75;;;26.60;99.90;;;;;;4995289;28;20022;-47
2023/05/02 02:02:50;;;;;;;3.28;2.28;;;26.50;99.90;;;;;;4992892;28;20053;-47
2023/05/02 02:05:18;;;;;;;3.17;2.67;;;26.60;99.90;;;;;;4995442;28;20061;-47
2023/05/02 02:07:44;;;;;;;4.00;2.58;;;26.60;99.90;;;;;;4995087;28;20094;-47
2023/05/02 02:10:10;;;;;;;3.63;2.38;;;26.60;99.90;;;;;;4995345;28;20508;-47
2023/05/02 02:12:41;;;;;;;3.83;2.55;;;26.50;99.90;;;;;;4995174;28;20157;-47
2023/05/02 02:15:19;;;;;;;5.32;2.88;;;26.50;99.90;;;;;;4995300;28;20018;-48
2023/05/02 02:18:17;;;;;;;4.18;2.35;;;26.50;99.90;;;;;;4995072;28;20033;-48
2023/05/02 02:20:45;;;;;;;4.68;2.70;;;26.50;99.90;;;;;;4992197;28;20122;-48
2023/05/02 02:23:13;;;;;;;3.63;2.50;;;26.50;99.90;;;;;;4994965;28;20021;-49
2023/05/02 02:25:40;;;;;;;3.33;2.28;;;26.50;99.90;;;;;;4995140;28;20464;-48
2023/05/02 02:28:06;;;;;;;3.30;2.20;;;26.50;99.90;;;;;;4994855;28;20109;-48
2023/05/02 02:30:32;;;;;;;3.93;2.93;;;26.60;99.90;;;;;;4995058;28;20046;-48
2023/05/02 02:32:58;;;;;;;2.83;2.35;;;26.50;99.90;;;;;;4993477;28;20990;-48
2023/05/02 02:35:30;;;;;;;4.57;2.50;;;26.50;99.90;;;;;;4994968;28;20030;-48
2023/05/02 02:38:13;;;;;;;3.50;2.50;;;26.50;99.90;;;;;;4993651;28;20022;-48
2023/05/02 02:40:48;;;;;;;3.33;2.40;;;26.50;99.90;;;;;;4994781;28;20080;-48
2023/05/02 02:43:35;;;;;;;3.85;2.45;;;26.50;99.90;;;;;;4994615;28;20118;-48
2023/05/02 02:46:25;;;;;;;4.25;2.65;;;26.50;99.90;;;;;;4994572;28;20022;-49
2023/05/02 02:49:30;;;;;;;4.88;2.20;;;26.50;99.90;;;;;;4994672;28;20029;-49
2023/05/02 02:52:27;;;;;;;2.92;2.38;;;26.50;99.90;;;;;;4997706;28;20070;-48
2023/05/02 02:54:59;;;;;;;3.85;2.67;;;26.50;99.90;;;;;;4993321;28;20019;-49
2023/05/02 02:57:46;;;;;;;4.43;2.65;;;26.50;99.90;;;;;;4994686;28;20037;-48
2023/05/02 03:02:49;;;;;;;4.05;2.50;;;26.50;99.90;;;;;;4987928;28;19922;-45
2023/05/02 03:05:15;;;;;;;4.50;2.97;;;26.50;99.90;;;;;;4981979;28;20022;-46
2023/05/02 03:07:41;;;;;;;3.10;2.20;;;26.50;99.90;;;;;;4993732;28;20077;-46
2023/05/02 03:10:08;;;;;;;4.60;2.97;;;26.50;99.90;;;;;;4988683;28;20039;-46
2023/05/02 03:12:33;;;;;;;4.50;2.50;;;26.40;99.90;;;;;;4987102;28;20027;-46
2023/05/02 03:15:20;;;;;;;6.90;2.97;;;26.40;99.90;;;;;;4993558;28;20392;-45
2023/05/02 03:17:45;;;;;;;3.15;2.42;;;26.50;99.90;;;;;;4993429;28;20025;-45
2023/05/02 03:20:11;;;;;;;7.00;2.40;;;26.40;99.90;;;;;;4981567;28;20480;-46
2023/05/02 03:22:37;;;;;;;6.18;2.90;;;26.40;99.90;;;;;;4993881;28;20023;-45
2023/05/02 03:25:03;;;;;;;4.07;2.13;;;26.40;99.90;;;;;;4980644;28;20064;-46
2023/05/02 03:27:30;;;;;;;3.20;2.28;;;26.40;99.90;;;;;;4993968;28;20027;-46
2023/05/02 03:29:56;;;;;;;4.28;2.65;;;26.40;99.90;;;;;;4989828;28;20023;-46
2023/05/02 03:32:22;;;;;;;3.22;2.38;;;26.40;99.90;;;;;;4983784;28;20047;-46
2023/05/02 03:34:48;;;;;;;4.28;2.35;;;26.40;99.90;;;;;;4993589;28;20373;-46
2023/05/02 03:37:14;;;;;;;3.65;2.88;;;26.40;99.90;;;;;;4984797;28;20847;-46
2023/05/02 03:39:39;;;;;;;3.00;2.03;;;26.40;99.90;;;;;;4988394;28;20119;-46
2023/05/02 03:42:05;;;;;;;3.72;2.30;;;26.40;99.90;;;;;;4992486;28;20469;-46
2023/05/02 03:44:31;;;;;;;4.82;2.25;;;26.40;99.90;;;;;;4991981;28;20018;-46
2023/05/02 03:46:57;;;;;;;2.88;2.00;;;26.40;99.90;;;;;;4993701;28;20037;-46
2023/05/02 03:49:22;;;;;;;2.90;2.00;;;26.40;99.90;;;;;;4993409;28;20065;-45
2023/05/02 03:51:48;;;;;;;3.25;2.05;;;26.40;99.90;;;;;;4993341;28;20054;-46
2023/05/02 03:54:14;;;;;;;3.15;1.88;;;26.40;99.90;;;;;;4993249;28;20030;-46
2023/05/02 03:56:40;;;;;;;2.45;1.80;;;26.40;99.90;;;;;;4992998;28;20032;-45
2023/05/02 03:59:06;;;;;;;3.28;2.25;;;26.40;99.90;;;;;;4992983;28;20023;-46
2023/05/02 04:01:31;;;;;;;2.45;1.52;;;26.40;99.90;;;;;;4992901;28;20046;-46
2023/05/02 04:03:57;;;;;;;3.90;2.22;;;26.40;99.90;;;;;;4993498;28;20068;-46
2023/05/02 04:06:23;;;;;;;3.22;2.50;;;26.40;99.90;;;;;;4992549;28;20018;-46
2023/05/02 04:08:49;;;;;;;3.30;1.95;;;26.40;99.90;;;;;;4991628;28;20022;-45
2023/05/02 04:11:14;;;;;;;3.17;1.83;;;26.40;99.90;;;;;;4977268;28;20469;-46
2023/05/02 04:13:40;;;;;;;2.70;1.77;;;26.40;99.90;;;;;;4973750;28;20381;-46
2023/05/02 04:16:06;;;;;;;3.47;2.03;;;26.40;99.90;;;;;;4989470;28;20388;-46
2023/05/02 04:18:32;;;;;;;3.22;1.80;;;26.40;99.90;;;;;;4992897;28;20472;-46
2023/05/02 04:20:57;;;;;;;3.05;1.90;;;26.40;99.90;;;;;;4992839;28;20088;-46
2023/05/02 04:23:23;;;;;;;2.65;1.92;;;26.40;99.90;;;;;;4986896;28;20030;-46
2023/05/02 04:25:53;;;;;;;3.78;1.88;;;26.40;99.90;;;;;;4984885;28;20053;-46
2023/05/02 04:28:20;;;;;;;3.33;1.67;;;26.30;99.90;;;;;;4987659;28;20021;-46
2023/05/02 04:30:47;;;;;;;3.33;2.17;;;26.30;99.90;;;;;;4973342;28;20037;-46
2023/05/02 04:33:13;;;;;;;3.72;1.95;;;26.30;99.90;;;;;;4991924;28;20049;-46
2023/05/02 04:35:40;;;;;;;2.22;1.70;;;26.30;99.90;;;;;;4980892;28;20062;-46
2023/05/02 04:38:06;;;;;;;2.83;1.90;;;26.30;99.90;;;;;;4990556;28;20063;-46
2023/05/02 04:40:33;;;;;;;3.55;2.10;;;26.30;99.90;;;;;;4992852;28;20030;-47
2023/05/02 04:42:59;;;;;;;5.38;2.03;;;26.30;99.90;;;;;;4992440;28;20031;-46
2023/05/02 04:45:25;;;;;;;2.58;1.92;;;26.30;99.90;;;;;;4992414;28;20041;-47
2023/05/02 04:47:51;;;;;;;3.83;2.15;;;26.30;99.90;;;;;;4990843;28;20354;-46
2023/05/02 04:50:17;;;;;;;3.60;3.05;;;26.30;99.90;;;;;;4980878;28;20093;-47
2023/05/02 04:52:42;;;;;;;3.47;2.30;;;26.30;99.90;;;;;;4992528;28;20368;-46
2023/05/02 04:55:08;;;;;;;3.97;2.20;;;26.30;99.90;;;;;;4992588;28;20376;-47
2023/05/02 04:57:34;;;;;;;2.67;1.83;;;26.30;99.90;;;;;;4992409;28;20023;-46
2023/05/02 05:00:00;;;;;;;5.50;2.00;;;26.30;99.90;;;;;;4992313;28;20015;-46
2023/05/02 05:02:26;;;;;;;3.17;2.13;;;26.30;99.90;;;;;;4981069;28;20109;-47
2023/05/02 05:04:52;;;;;;;4.28;2.05;;;26.30;99.90;;;;;;4977967;28;20488;-46
2023/05/02 05:07:18;;;;;;;6.05;1.95;;;26.30;99.90;;;;;;4992562;28;20029;-46
2023/05/02 05:09:43;;;;;;;4.45;2.30;;;26.30;99.90;;;;;;4975950;28;20023;-47
2023/05/02 05:12:09;;;;;;;3.25;2.33;;;26.30;99.90;;;;;;4982907;28;20045;-47
2023/05/02 05:14:35;;;;;;;3.47;2.40;;;26.30;99.90;;;;;;4992069;28;20149;-47
2023/05/02 05:17:01;;;;;;;3.38;2.05;;;26.30;99.90;;;;;;4976962;28;20113;-47
2023/05/02 05:19:27;;;;;;;5.75;2.53;;;26.30;99.90;;;;;;4991229;28;20116;-47
2023/05/02 05:21:53;;;;;;;2.92;2.00;;;26.30;99.90;;;;;;4996298;28;20034;-47
2023/05/02 05:24:18;;;;;;;4.75;2.20;;;26.20;99.90;;;;;;4995995;28;20452;-48
2023/05/02 05:26:44;;;;;;;2.03;1.63;;;26.20;99.90;;;;;;4996156;28;20354;-47
2023/05/02 05:29:10;;;;;;;5.95;3.20;;;26.20;99.90;;;;;;4996143;28;20366;-47
2023/05/02 05:31:36;;;;;;;3.88;1.75;;;26.20;99.90;;;;;;4982988;28;20030;-47
2023/05/02 05:34:03;;;;;;;4.57;3.10;;;26.20;99.90;;;;;;4996130;28;20061;-47
2023/05/02 05:36:30;;;;;;;3.10;2.40;;;26.20;99.90;;;;;;4994338;28;20468;-47
2023/05/02 05:38:56;;;;;;;3.15;2.17;;;26.20;99.90;;;;;;4995832;28;20030;-46
2023/05/02 05:41:23;;;;;;;3.03;2.10;;;26.20;99.90;;;;;;4995738;28;20431;-47
2023/05/02 05:43:49;;;;;;;2.90;2.33;;;26.20;99.90;;;;;;4995514;28;20464;-47
2023/05/02 05:46:15;;;;;;;3.53;2.60;;;26.20;99.90;;;;;;4995729;28;20022;-47
2023/05/02 05:48:40;;;;;;;3.38;2.13;;;26.20;99.90;;;;;;4995581;28;20035;-47
2023/05/02 05:51:06;;;;;;;2.78;2.20;;;26.20;99.90;;;;;;4989043;28;20042;-47
2023/05/02 05:53:33;;;;;;;3.28;2.13;;;26.20;99.90;;;;;;4982343;28;20025;-47
2023/05/02 05:55:58;;;;;;;3.80;2.65;;;26.20;99.90;;;;;;4995538;28;20468;-46
2023/05/02 05:58:24;;;;;;;3.38;2.72;;;26.20;99.90;;;;;;4994266;28;20026;-47
2023/05/02 06:00:51;;;;;;;4.72;2.70;;;26.20;99.90;;;;;;4994216;28;20052;-47
2023/05/02 06:03:16;;;;;;;5.53;2.65;;;26.20;99.90;;;;;;4994510;28;20049;-47
2023/05/02 06:05:42;;;;;;;4.95;2.72;;;26.20;99.90;;;;;;4995033;28;20488;-48
2023/05/02 06:08:08;;;;;;;4.18;2.75;;;26.20;99.90;;;;;;4991386;28;20376;-47
2023/05/02 06:10:35;;;;;;;7.38;3.47;;;26.20;99.90;;;;;;4994803;28;20149;-47
2023/05/02 06:13:01;;;;;;;6.90;3.67;;;26.20;99.90;;;;;;4993125;28;20109;-46
2023/05/02 06:15:27;;;;;;;8.45;4.22;;;26.20;99.90;;;;;;4994552;28;20104;-47
2023/05/02 06:17:52;;;;;;;5.95;3.50;;;26.20;99.90;;;;;;4993532;28;20030;-47
2023/05/02 06:20:18;;;;;;;4.93;3.65;;;26.20;99.90;;;;;;4994731;28;20026;-47
2023/05/02 06:22:45;;;;;;;9.88;4.60;;;26.20;99.90;;;;;;4994257;28;20519;-47
2023/05/02 06:25:10;;;;;;;7.38;3.90;;;26.20;99.90;;;;;;4993454;28;20125;-47
2023/05/02 06:27:36;;;;;;;6.97;4.43;;;26.20;99.90;;;;;;4986639;28;20439;-47
2023/05/02 06:30:02;;;;;;;10.15;3.40;;;26.20;99.90;;;;;;4986781;28;20038;-47
2023/05/02 06:32:31;;;;;;;15.35;9.55;;;26.20;99.90;;;;;;4994589;28;20034;-47
2023/05/02 06:34:57;;;;;;;21.02;12.27;;;26.20;99.90;;;;;;4994668;28;20030;-47
2023/05/02 06:37:22;;;;;;;18.85;11.05;;;26.10;99.90;;;;;;4994502;28;20371;-47
2023/05/02 06:39:48;;;;;;;18.23;12.00;;;26.10;99.90;;;;;;4991561;28;20053;-48
2023/05/02 06:42:14;;;;;;;21.63;12.02;;;26.00;99.90;;;;;;4994660;28;20454;-48
2023/05/02 06:44:40;;;;;;;17.73;11.05;;;25.90;99.90;;;;;;4994644;28;20014;-47
2023/05/02 06:47:06;;;;;;;17.25;10.57;;;25.80;99.90;;;;;;4994728;28;20058;-47
2023/05/02 06:49:32;;;;;;;18.25;10.32;;;25.80;99.90;;;;;;4993095;28;20026;-47
2023/05/02 06:51:58;;;;;;;19.10;10.52;;;25.70;99.90;;;;;;4987914;28;20089;-47
2023/05/02 06:54:24;;;;;;;20.98;9.85;;;25.70;99.90;;;;;;4994541;28;20028;-47
2023/05/02 06:56:50;;;;;;;21.17;8.48;;;25.60;99.90;;;;;;4994382;28;20113;-47
2023/05/02 06:59:16;;;;;;;12.88;7.30;;;25.50;99.90;;;;;;4994315;28;20097;-46
2023/05/02 07:01:45;;;;;;;13.32;6.55;;;25.50;99.90;;;;;;4992628;28;20049;-47
2023/05/02 07:04:11;;;;;;;13.15;7.40;;;25.50;99.90;;;;;;4990668;28;20026;-47
2023/05/02 07:06:37;;;;;;;11.63;6.35;;;25.40;99.90;;;;;;4994698;28;20045;-49
2023/05/02 07:09:02;;;;;;;12.88;6.07;;;25.40;99.90;;;;;;4994240;28;20030;-47
2023/05/02 07:11:28;;;;;;;12.70;5.50;;;25.30;99.90;;;;;;4992932;28;20030;-47
2023/05/02 07:13:54;;;;;;;15.45;6.32;;;25.30;99.90;;;;;;4989801;28;20559;-44
2023/05/02 07:16:20;;;;;;;13.95;6.65;;;25.30;99.90;;;;;;4969768;28;20396;-45
2023/05/02 07:18:46;;;;;;;12.40;5.90;;;25.20;99.90;;;;;;4972107;28;20235;-45
2023/05/02 07:21:12;;;;;;;11.93;4.82;;;25.00;99.90;;;;;;4973830;28;20483;-46
2023/05/02 07:23:38;;;;;;;13.68;5.78;;;24.80;99.90;;;;;;4970853;28;20528;-46
2023/05/02 07:26:06;;;;;;;10.32;5.65;;;24.60;99.90;;;;;;4972036;28;20015;-44
2023/05/02 07:28:32;;;;;;;11.73;4.65;;;24.50;99.90;;;;;;4972348;28;20037;-44
2023/05/02 07:30:58;;;;;;;14.63;4.30;;;24.30;99.90;;;;;;4971259;28;20072;-47
2023/05/02 07:33:24;;;;;;;10.70;4.53;;;24.20;99.90;;;;;;4974058;28;20023;-46
2023/05/02 07:35:50;;;;;;;13.80;4.55;;;24.10;99.90;;;;;;4974500;28;20046;-46
2023/05/02 07:38:16;;;;;;;8.88;4.65;;;24.10;99.90;;;;;;4970424;28;20717;-46
2023/05/02 07:40:42;;;;;;;11.18;3.92;;;24.00;99.90;;;;;;4974838;28;20101;-47
2023/05/02 07:43:09;;;;;;;10.85;4.78;;;23.90;99.90;;;;;;4972448;28;20154;-48
2023/05/02 07:45:34;;;;;;;9.00;3.70;;;23.90;99.90;;;;;;4973431;28;20023;-46
2023/05/02 07:48:00;;;;;;;12.00;3.97;;;23.80;99.90;;;;;;4972441;28;20031;-46
2023/05/02 07:50:26;;;;;;;10.77;4.47;;;23.80;99.90;;;;;;4971493;28;20035;-46
2023/05/02 07:52:54;;;;;;;11.57;4.60;;;23.80;99.90;;;;;;4972807;28;20042;-46
2023/05/02 07:55:20;;;;;;;8.60;4.78;;;23.80;99.90;;;;;;4971645;28;20038;-46
2023/05/02 07:57:46;;;;;;;13.63;8.38;;;23.70;99.90;;;;;;4971051;28;20044;-46
2023/05/02 08:00:13;;;;;;;20.75;8.02;;;23.70;99.90;;;;;;4974471;28;20091;-46
2023/05/02 08:02:41;;;;;;;9.52;4.63;;;23.70;99.90;;;;;;4972207;28;20390;-46
2023/05/02 08:05:07;;;;;;;8.85;4.85;;;23.70;99.90;;;;;;4975548;28;20131;-46
2023/05/02 08:07:34;;;;;;;7.78;3.53;;;23.70;99.90;;;;;;4972113;28;20031;-46
2023/05/02 08:10:00;;;;;;;11.52;3.92;;;23.70;99.90;;;;;;4974319;28;20038;-46
2023/05/02 08:12:26;;;;;;;12.18;7.55;;;23.70;99.90;;;;;;4971648;28;20034;-46
2023/05/02 08:14:52;;;;;;;9.77;6.70;;;23.70;99.90;;;;;;4973310;28;20035;-47
2023/05/02 08:17:18;;;;;;;5.05;2.60;;;23.70;99.90;;;;;;4971390;28;20105;-46
2023/05/02 08:19:43;;;;;;;5.75;2.88;;;23.80;99.90;;;;;;4972999;28;20117;-46
2023/05/02 08:22:09;;;;;;;6.85;3.17;;;23.80;99.90;;;;;;4972372;28;20521;-46
2023/05/02 08:24:35;;;;;;;10.68;4.47;;;23.90;99.90;;;;;;4974723;28;20015;-46
2023/05/02 08:27:05;;;;;;;5.35;3.47;;;23.90;99.90;;;;;;4972214;28;20105;-46
2023/05/02 08:29:31;;;;;;;10.35;6.30;;;23.90;99.90;;;;;;4973255;28;20031;-46
2023/05/02 08:31:57;;;;;;;3.85;2.80;;;24.00;99.90;;;;;;4970965;28;20042;-46
2023/05/02 08:34:23;;;;;;;5.90;2.72;;;24.00;99.90;;;;;;4973298;28;20022;-46
2023/05/02 08:36:48;;;;;;;5.57;2.00;;;24.10;99.90;;;;;;4968669;28;20039;-46
2023/05/02 08:39:15;;;;;;;9.75;5.47;;;24.10;99.90;;;;;;4976032;28;20031;-47
2023/05/02 08:41:41;;;;;;;9.20;3.03;;;24.20;99.90;;;;;;4971026;28;20035;-46
2023/05/02 08:44:07;;;;;;;13.70;9.13;;;24.20;99.90;;;;;;4972805;28;20022;-47
2023/05/02 08:46:35;;;;;;;4.93;1.88;;;24.30;99.90;;;;;;4973882;28;20077;-47
2023/05/02 08:49:02;;;;;;;5.55;1.70;;;24.30;99.90;;;;;;4972035;28;20018;-47
2023/05/02 08:51:31;;;;;;;7.35;2.03;;;24.30;99.90;;;;;;4971372;28;20034;-46
2023/05/02 08:53:57;;;;;;;6.40;1.60;;;24.40;99.90;;;;;;4971118;28;20107;-47
2023/05/02 08:56:24;;;;;;;6.47;2.00;;;24.40;99.90;;;;;;4971663;28;20031;-46
2023/05/02 08:58:49;;;;;;;9.15;2.28;;;24.50;99.90;;;;;;4973025;28;20043;-47
2023/05/02 09:01:17;;;;;;;4.70;1.63;;;24.50;99.90;;;;;;4970798;28;20182;-47
2023/05/02 09:03:45;;;;;;;3.63;1.50;;;24.60;99.90;;;;;;4969678;28;20034;-46
2023/05/02 09:06:19;;;;;;;8.43;4.13;;;24.60;99.90;;;;;;4974314;28;20459;-47
2023/05/02 09:08:48;;;;;;;10.15;6.55;;;24.70;99.90;;;;;;4974945;28;20503;-47
2023/05/02 09:11:15;;;;;;;7.50;3.42;;;24.70;99.90;;;;;;4973180;28;20407;-47
2023/05/02 09:13:51;;;;;;;3.58;1.92;;;24.80;99.90;;;;;;4974171;28;20043;-47
2023/05/02 09:16:22;;;;;;;4.75;1.80;;;24.80;99.90;;;;;;4970769;28;20093;-48
2023/05/02 09:18:56;;;;;;;4.88;1.60;;;24.80;99.90;;;;;;4975226;28;20054;-48
2023/05/02 09:21:26;;;;;;;29.25;3.35;;;24.90;99.90;;;;;;4969633;28;20023;-47
2023/05/02 09:23:59;;;;;;;15.05;2.10;;;24.90;99.90;;;;;;4969335;28;20042;-48
2023/05/02 09:26:31;;;;;;;7.35;1.58;;;25.00;99.90;;;;;;4974145;28;20025;-48
2023/05/02 09:28:57;;;;;;;5.97;1.50;;;25.00;99.90;;;;;;4968055;28;20041;-48
2023/05/02 09:31:36;;;;;;;5.88;1.27;;;25.10;99.90;;;;;;4970362;28;20411;-48
2023/05/02 09:34:15;;;;;;;2.67;1.55;;;25.20;99.90;;;;;;4973706;28;20027;-47
2023/05/02 09:36:52;;;;;;;5.40;1.10;;;25.20;99.90;;;;;;4972015;28;20026;-47
2023/05/02 09:39:22;;;;;;;;;;;25.30;99.90;;;;;;4969428;28;20030;-46
2023/05/02 09:41:48;;;;;;;2.92;1.00;;;25.40;99.90;;;;;;4970257;28;19906;-47
2023/05/02 09:44:19;;;;;;;5.57;3.20;;;25.40;99.90;;;;;;4972234;28;20035;-48
2023/05/02 09:46:53;;;;;;;6.05;3.20;;;25.40;99.90;;;;;;4972031;28;20105;-47
2023/05/02 09:49:38;;;;;;;5.65;3.92;;;25.40;99.90;;;;;;4968743;28;20023;-47
2023/05/02 09:52:21;;;;;;;5.47;3.22;;;25.50;99.90;;;;;;4973384;28;20533;-47
2023/05/02 09:54:49;;;;;;;2.50;1.83;;;25.50;99.90;;;;;;4972082;28;20051;-48
2023/05/02 09:57:15;;;;;;;2.47;1.50;;;25.50;99.90;;;;;;4972368;28;20517;-47
2023/05/02 09:59:51;;;;;;;3.25;1.30;;;25.60;99.90;;;;;;4970313;28;20133;-47
2023/05/02 10:02:18;;;;;;;1.88;1.13;;;25.60;99.90;;;;;;4975178;28;20046;-48
2023/05/02 10:04:46;;;;;;;1.80;1.02;;;25.70;99.90;;;;;;4973830;28;20037;-47
2023/05/02 10:07:13;;;;;;;2.10;1.10;;;25.70;99.90;;;;;;4972423;28;20122;-48
2023/05/02 10:09:43;;;;;;;2.75;1.15;;;25.70;99.90;;;;;;4978137;28;20470;-48
2023/05/02 10:12:11;;;;;;;2.05;1.20;;;25.70;99.90;;;;;;4972748;28;20066;-47
2023/05/02 10:14:42;;;;;;;1.83;1.00;;;25.80;99.90;;;;;;4976056;28;20046;-46
2023/05/02 10:17:22;;;;;;;2.80;0.80;;;25.80;99.90;;;;;;4971982;28;20026;-47
2023/05/02 10:19:58;;;;;;;1.80;1.10;;;25.80;99.90;;;;;;4969273;28;20023;-45
2023/05/02 10:22:25;;;;;;;1.70;0.88;;;25.90;99.90;;;;;;4973472;28;20081;-47
2023/05/02 10:24:52;;;;;;;2.75;1.17;;;25.90;99.90;;;;;;4972919;28;20022;-47
2023/05/02 10:27:18;;;;;;;4.15;0.80;;;25.90;99.90;;;;;;4974940;28;20034;-48
2023/05/02 10:29:45;;;;;;;2.03;0.95;;;25.90;99.90;;;;;;4975101;28;20456;-47
2023/05/02 10:32:14;;;;;;;4.28;1.83;;;26.00;99.90;;;;;;4976423;28;20026;-48
2023/05/02 10:34:40;;;;;;;3.63;1.10;;;26.00;99.90;;;;;;4974849;28;20081;-47
2023/05/02 10:37:07;;;;;;;11.25;1.40;;;26.00;99.90;;;;;;4973913;28;20019;-48
2023/05/02 10:39:33;;;;;;;2.40;1.15;;;26.00;99.90;;;;;;4975955;28;20539;-48
2023/05/02 10:42:01;;;;;;;1.73;1.00;;;26.00;99.90;;;;;;4973760;28;20031;-47
2023/05/02 10:44:33;;;;;;;2.03;1.10;;;26.00;99.90;;;;;;4972970;28;20031;-47
2023/05/02 10:46:59;;;;;;;2.20;1.17;;;26.10;99.90;;;;;;4976372;28;20588;-48
2023/05/02 10:49:26;;;;;;;1.77;0.90;;;26.10;99.90;;;;;;4974853;28;20062;-49
2023/05/02 10:51:52;;;;;;;2.25;1.25;;;26.10;99.90;;;;;;4978811;28;20022;-48
2023/05/02 10:54:24;;;;;;;2.95;2.33;;;26.20;99.90;;;;;;4973408;28;20019;-48
2023/05/02 10:57:05;;;;;;;6.07;4.55;;;26.20;99.90;;;;;;4976597;28;20130;-48
2023/05/02 10:59:36;;;;;;;7.30;4.65;;;26.20;99.90;;;;;;4971191;28;20027;-48
2023/05/02 11:02:02;;;;;;;7.97;4.10;;;26.30;99.90;;;;;;4970121;28;20050;-48
2023/05/02 11:05:03;;;;;;;4.88;2.60;;;26.30;99.90;;;;;;4973632;28;20058;-48
2023/05/02 11:07:30;;;;;;;8.25;5.68;;;26.30;99.90;;;;;;4972470;28;20022;-48
2023/05/02 11:10:21;;;;;;;3.35;2.35;;;26.30;99.90;;;;;;4973631;28;20039;-47
2023/05/02 11:12:52;;;;;;;4.10;1.50;;;26.30;99.90;;;;;;4971271;28;20031;-48
2023/05/02 11:15:27;;;;;;;2.42;0.93;;;26.30;99.90;;;;;;4975210;28;20041;-48
2023/05/02 11:18:06;;;;;;;4.82;1.27;;;26.30;99.90;;;;;;4974615;28;20031;-48
2023/05/02 11:20:33;;;;;;;1.88;1.30;;;26.40;99.90;;;;;;4978776;28;20420;-48
2023/05/02 11:23:20;;;;;;;3.88;1.10;;;26.40;99.90;;;;;;4973142;28;20477;-48
2023/05/02 11:25:50;;;;;;;4.28;1.33;;;26.40;99.90;;;;;;4974608;28;20086;-48
2023/05/02 11:28:37;;;;;;;2.95;1.05;;;26.40;99.90;;;;;;4974357;28;20035;-48
2023/05/02 11:31:05;;;;;;;3.20;1.17;;;26.40;99.90;;;;;;4972661;28;20042;-48
2023/05/02 11:33:31;;;;;;;1.77;1.20;;;26.50;99.90;;;;;;4973456;28;20481;-48
2023/05/02 11:35:57;;;;;;;3.17;1.17;;;26.50;99.90;;;;;;4973966;28;20034;-48
2023/05/02 11:38:24;;;;;;;2.47;1.00;;;26.50;99.90;;;;;;4972525;28;20113;-48
2023/05/02 11:41:01;;;;;;;3.75;1.35;;;26.50;99.90;;;;;;4972604;28;20078;-48
2023/05/02 11:43:28;;;;;;;3.60;1.13;;;26.50;99.90;;;;;;4974016;28;20110;-48
2023/05/02 11:45:55;;;;;;;0.77;0.77;;;26.60;99.90;;;;;;4973160;28;20038;-48
2023/05/02 11:48:25;;;;;;;2.67;0.85;;;26.60;99.90;;;;;;4972362;28;20027;-48
2023/05/02 11:50:56;;;;;;;1.77;1.05;;;26.60;99.90;;;;;;4973470;28;20370;-48
2023/05/02 11:53:24;;;;;;;6.95;1.20;;;26.60;99.90;;;;;;4972940;28;20035;-47
2023/05/02 11:55:50;;;;;;;3.53;0.80;;;26.70;99.90;;;;;;4971590;28;20041;-48
2023/05/02 11:58:18;;;;;;;3.78;0.90;;;26.70;99.90;;;;;;4972494;28;20030;-47
2023/05/02 12:00:45;;;;;;;1.88;1.00;;;26.70;99.90;;;;;;4971312;28;20449;-47
2023/05/02 12:03:30;;;;;;;1.88;0.88;;;26.70;99.90;;;;;;4971168;28;20027;-47
2023/05/02 12:06:07;;;;;;;1.73;1.05;;;26.80;99.90;;;;;;4972608;28;20045;-47
2023/05/02 12:08:33;;;;;;;0.85;0.70;;;26.80;99.90;;;;;;4973018;28;20023;-47
2023/05/02 12:10:59;;;;;;;4.32;1.00;;;26.80;99.90;;;;;;4973276;28;20039;-48
2023/05/02 12:13:25;;;;;;;1.15;0.80;;;26.80;99.90;;;;;;4974711;28;20041;-47
2023/05/02 12:15:53;;;;;;;1.70;0.83;;;26.90;99.90;;;;;;4973342;28;20022;-47
2023/05/02 12:18:22;;;;;;;;;;;26.90;99.90;;;;;;4973432;28;20126;-47
2023/05/02 12:20:50;;;;;;;3.80;1.02;;;26.90;99.90;;;;;;4971013;28;20012;-48
2023/05/02 12:23:17;;;;;;;3.17;1.63;;;26.90;99.90;;;;;;4970471;28;20034;-47
2023/05/02 12:25:43;;;;;;;3.25;0.93;;;27.00;99.90;;;;;;4973328;28;20026;-48
2023/05/02 12:28:10;;;;;;;4.70;1.50;;;27.00;99.90;;;;;;4973320;28;20039;-48
2023/05/02 12:30:40;;;;;;;2.95;1.23;;;27.00;99.90;;;;;;4972688;28;20089;-48
2023/05/02 12:33:06;;;;;;;2.40;1.05;;;27.00;99.90;;;;;;4968407;28;20086;-48
2023/05/02 12:35:33;;;;;;;2.83;1.42;;;27.00;99.90;;;;;;4970891;28;20327;-48
2023/05/02 12:38:17;;;;;;;2.10;1.65;;;27.10;99.90;;;;;;4969327;28;20110;-48
2023/05/02 12:40:50;;;;;;;2.70;1.58;;;27.10;99.90;;;;;;4956475;28;20034;-47
2023/05/02 12:43:17;;;;;;;4.72;1.95;;;27.10;99.90;;;;;;4972867;28;20023;-47
2023/05/02 12:45:43;;;;;;;3.28;1.80;;;27.20;99.90;;;;;;4973572;28;20515;-47
2023/05/02 12:48:26;;;;;;;3.60;2.05;;;27.20;99.90;;;;;;4970770;28;20027;-47
2023/05/02 12:50:53;;;;;;;4.97;1.80;;;27.20;99.90;;;;;;4974640;28;20509;-48
2023/05/02 12:53:38;;;;;;;3.95;1.80;;;27.30;99.90;;;;;;4970618;28;20117;-47
2023/05/02 12:56:05;;;;;;;2.97;1.40;;;27.30;99.90;;;;;;4972758;28;20089;-48
2023/05/02 12:58:43;;;;;;;4.37;1.90;;;27.30;99.90;;;;;;4970476;28;20030;-48
2023/05/02 13:01:09;;;;;;;4.45;2.22;;;27.30;99.90;;;;;;4969218;28;20058;-45